sensor_id;sensor_type;location;lat;lon;timestamp;P1;P2;P0
47079;PMS5003;33067;49.296;14.470;2023-05-17T00:01:44;24;24;
47079;PMS5003;33067;49.296;14.470;2023-05-17T00:04:09;32;29;
47079;PMS5003;33067;49.296;14.470;2023-05-17T00:06:34;17;17;
47079;PMS5003;33067;49.296;14.470;2023-05-17T00:08:59;25;25;
47079;PMS5003;33067;49.296;14.470;2023-05-17T00:11:25;21;15;
47079;PMS5003;33067;49.296;14.470;2023-05-17T00:13:50;25;25;
47079;PMS5003;33067;49.296;14.470;2023-05-17T00:16:15;17;17;
47079;PMS5003;33067;49.296;14.470;2023-05-17T00:18:40;31;31;
47079;PMS5003;33067;49.296;14.470;2023-05-17T00:21:05;23;23;
47079;PMS5003;33067;49.296;14.470;2023-05-17T00:23:31;30;30;
47079;PMS5003;33067;49.296;14.470;2023-05-17T00:25:56;26;26;
47079;PMS5003;33067;49.296;14.470;2023-05-17T00:28:22;29;27;
47079;PMS5003;33067;49.296;14.470;2023-05-17T00:30:47;24;24;
47079;PMS5003;33067;49.296;14.470;2023-05-17T00:33:12;23;23;
47079;PMS5003;33067;49.296;14.470;2023-05-17T00:35:37;27;26;
47079;PMS5003;33067;49.296;14.470;2023-05-17T00:38:02;16;15;
47079;PMS5003;33067;49.296;14.470;2023-05-17T00:40:28;24;24;
47079;PMS5003;33067;49.296;14.470;2023-05-17T00:42:53;26;24;
47079;PMS5003;33067;49.296;14.470;2023-05-17T00:45:18;20;18;
47079;PMS5003;33067;49.296;14.470;2023-05-17T00:47:44;19;19;
47079;PMS5003;33067;49.296;14.470;2023-05-17T00:50:10;24;23;
47079;PMS5003;33067;49.296;14.470;2023-05-17T00:52:35;27;27;
47079;PMS5003;33067;49.296;14.470;2023-05-17T00:55:00;20;19;
47079;PMS5003;33067;49.296;14.470;2023-05-17T00:57:26;24;24;
47079;PMS5003;33067;49.296;14.470;2023-05-17T00:59:51;18;18;
47079;PMS5003;33067;49.296;14.470;2023-05-17T01:02:17;14;14;
47079;PMS5003;33067;49.296;14.470;2023-05-17T01:04:42;18;14;
47079;PMS5003;33067;49.296;14.470;2023-05-17T01:07:09;15;15;
47079;PMS5003;33067;49.296;14.470;2023-05-17T01:09:33;13;12;
47079;PMS5003;33067;49.296;14.470;2023-05-17T01:12:00;21;20;
47079;PMS5003;33067;49.296;14.470;2023-05-17T01:14:29;17;17;
47079;PMS5003;33067;49.296;14.470;2023-05-17T01:16:50;17;16;
47079;PMS5003;33067;49.296;14.470;2023-05-17T01:19:15;16;13;
47079;PMS5003;33067;49.296;14.470;2023-05-17T01:21:43;20;20;
47079;PMS5003;33067;49.296;14.470;2023-05-17T01:24:12;12;12;
47079;PMS5003;33067;49.296;14.470;2023-05-17T01:26:35;22;22;
47079;PMS5003;33067;49.296;14.470;2023-05-17T01:28:55;17;17;
47079;PMS5003;33067;49.296;14.470;2023-05-17T01:31:20;14;13;
47079;PMS5003;33067;49.296;14.470;2023-05-17T01:33:45;15;15;
47079;PMS5003;33067;49.296;14.470;2023-05-17T01:36:12;14;14;
47079;PMS5003;33067;49.296;14.470;2023-05-17T01:38:36;13;11;
47079;PMS5003;33067;49.296;14.470;2023-05-17T01:41:04;13;11;
47079;PMS5003;33067;49.296;14.470;2023-05-17T01:43:30;14;13;
47079;PMS5003;33067;49.296;14.470;2023-05-17T01:45:56;12;12;
47079;PMS5003;33067;49.296;14.470;2023-05-17T01:48:19;17;16;
47079;PMS5003;33067;49.296;14.470;2023-05-17T01:50:43;16;16;
47079;PMS5003;33067;49.296;14.470;2023-05-17T01:53:10;10;10;
47079;PMS5003;33067;49.296;14.470;2023-05-17T01:55:36;10;8;
47079;PMS5003;33067;49.296;14.470;2023-05-17T01:57:58;14;12;
47079;PMS5003;33067;49.296;14.470;2023-05-17T02:00:24;14;13;
47079;PMS5003;33067;49.296;14.470;2023-05-17T02:02:49;19;19;
47079;PMS5003;33067;49.296;14.470;2023-05-17T02:05:15;22;21;
47079;PMS5003;33067;49.296;14.470;2023-05-17T02:07:40;11;11;
47079;PMS5003;33067;49.296;14.470;2023-05-17T02:12:59;15;13;
47079;PMS5003;33067;49.296;14.470;2023-05-17T02:15:25;5;5;
47079;PMS5003;33067;49.296;14.470;2023-05-17T02:17:49;11;7;
47079;PMS5003;33067;49.296;14.470;2023-05-17T02:20:15;7;6;
47079;PMS5003;33067;49.296;14.470;2023-05-17T02:22:40;6;6;
47079;PMS5003;33067;49.296;14.470;2023-05-17T02:25:06;4;4;
47079;PMS5003;33067;49.296;14.470;2023-05-17T02:27:31;8;6;
47079;PMS5003;33067;49.296;14.470;2023-05-17T02:29:57;6;6;
47079;PMS5003;33067;49.296;14.470;2023-05-17T02:32:21;5;4;
47079;PMS5003;33067;49.296;14.470;2023-05-17T02:34:47;5;5;
47079;PMS5003;33067;49.296;14.470;2023-05-17T02:37:13;4;4;
47079;PMS5003;33067;49.296;14.470;2023-05-17T02:39:37;7;6;
47079;PMS5003;33067;49.296;14.470;2023-05-17T02:42:03;7;5;
47079;PMS5003;33067;49.296;14.470;2023-05-17T02:44:28;5;4;
47079;PMS5003;33067;49.296;14.470;2023-05-17T02:46:55;4;4;
47079;PMS5003;33067;49.296;14.470;2023-05-17T02:49:19;5;5;
47079;PMS5003;33067;49.296;14.470;2023-05-17T02:51:44;4;4;
47079;PMS5003;33067;49.296;14.470;2023-05-17T02:54:09;4;4;
47079;PMS5003;33067;49.296;14.470;2023-05-17T02:56:35;6;4;
47079;PMS5003;33067;49.296;14.470;2023-05-17T02:59:00;5;4;
47079;PMS5003;33067;49.296;14.470;2023-05-17T03:01:25;4;4;
47079;PMS5003;33067;49.296;14.470;2023-05-17T03:03:51;2;2;
47079;PMS5003;33067;49.296;14.470;2023-05-17T03:06:16;3;3;
47079;PMS5003;33067;49.296;14.470;2023-05-17T03:08:41;6;4;
47079;PMS5003;33067;49.296;14.470;2023-05-17T03:11:07;3;3;
47079;PMS5003;33067;49.296;14.470;2023-05-17T03:13:32;4;4;
47079;PMS5003;33067;49.296;14.470;2023-05-17T03:15:58;3;3;
47079;PMS5003;33067;49.296;14.470;2023-05-17T03:18:23;4;3;
47079;PMS5003;33067;49.296;14.470;2023-05-17T03:20:48;2;2;
47079;PMS5003;33067;49.296;14.470;2023-05-17T03:23:14;3;3;
47079;PMS5003;33067;49.296;14.470;2023-05-17T03:25:39;4;3;
47079;PMS5003;33067;49.296;14.470;2023-05-17T03:28:04;2;2;
47079;PMS5003;33067;49.296;14.470;2023-05-17T03:30:29;4;4;
47079;PMS5003;33067;49.296;14.470;2023-05-17T03:32:55;2;2;
47079;PMS5003;33067;49.296;14.470;2023-05-17T03:35:20;6;5;
47079;PMS5003;33067;49.296;14.470;2023-05-17T03:37:47;5;3;
47079;PMS5003;33067;49.296;14.470;2023-05-17T03:40:11;2;2;
47079;PMS5003;33067;49.296;14.470;2023-05-17T03:42:36;4;4;
47079;PMS5003;33067;49.296;14.470;2023-05-17T03:45:02;3;3;
47079;PMS5003;33067;49.296;14.470;2023-05-17T03:47:27;2;2;
47079;PMS5003;33067;49.296;14.470;2023-05-17T03:49:52;6;3;
47079;PMS5003;33067;49.296;14.470;2023-05-17T03:52:18;3;3;
47079;PMS5003;33067;49.296;14.470;2023-05-17T03:54:43;2;2;
47079;PMS5003;33067;49.296;14.470;2023-05-17T03:57:10;3;3;
47079;PMS5003;33067;49.296;14.470;2023-05-17T03:59:34;3;3;
47079;PMS5003;33067;49.296;14.470;2023-05-17T04:01:59;2;2;
47079;PMS5003;33067;49.296;14.470;2023-05-17T04:04:24;4;4;
47079;PMS5003;33067;49.296;14.470;2023-05-17T04:06:50;4;4;
47079;PMS5003;33067;49.296;14.470;2023-05-17T04:09:15;2;2;
47079;PMS5003;33067;49.296;14.470;2023-05-17T04:11:41;3;3;
47079;PMS5003;33067;49.296;14.470;2023-05-17T04:14:06;3;3;
47079;PMS5003;33067;49.296;14.470;2023-05-17T04:16:31;3;3;
47079;PMS5003;33067;49.296;14.470;2023-05-17T04:18:58;3;3;
47079;PMS5003;33067;49.296;14.470;2023-05-17T04:21:22;4;4;
47079;PMS5003;33067;49.296;14.470;2023-05-17T04:23:47;4;4;
47079;PMS5003;33067;49.296;14.470;2023-05-17T04:26:13;3;3;
47079;PMS5003;33067;49.296;14.470;2023-05-17T04:28:38;3;3;
47079;PMS5003;33067;49.296;14.470;2023-05-17T04:31:05;4;3;
47079;PMS5003;33067;49.296;14.470;2023-05-17T04:33:29;3;3;
47079;PMS5003;33067;49.296;14.470;2023-05-17T04:35:54;4;4;
47079;PMS5003;33067;49.296;14.470;2023-05-17T04:38:20;3;3;
47079;PMS5003;33067;49.296;14.470;2023-05-17T04:40:45;3;3;
47079;PMS5003;33067;49.296;14.470;2023-05-17T04:43:10;3;3;
47079;PMS5003;33067;49.296;14.470;2023-05-17T04:45:36;4;4;
47079;PMS5003;33067;49.296;14.470;2023-05-17T04:48:01;6;3;
47079;PMS5003;33067;49.296;14.470;2023-05-17T04:50:28;4;3;
47079;PMS5003;33067;49.296;14.470;2023-05-17T04:52:52;4;3;
47079;PMS5003;33067;49.296;14.470;2023-05-17T04:55:17;3;3;
47079;PMS5003;33067;49.296;14.470;2023-05-17T04:57:43;4;4;
47079;PMS5003;33067;49.296;14.470;2023-05-17T05:00:08;4;3;
47079;PMS5003;33067;49.296;14.470;2023-05-17T05:02:33;3;2;
47079;PMS5003;33067;49.296;14.470;2023-05-17T05:04:59;4;4;
47079;PMS5003;33067;49.296;14.470;2023-05-17T05:07:24;3;3;
47079;PMS5003;33067;49.296;14.470;2023-05-17T05:09:50;4;3;
47079;PMS5003;33067;49.296;14.470;2023-05-17T05:12:15;3;3;
47079;PMS5003;33067;49.296;14.470;2023-05-17T05:14:40;5;3;
47079;PMS5003;33067;49.296;14.470;2023-05-17T05:17:06;3;3;
47079;PMS5003;33067;49.296;14.470;2023-05-17T05:19:32;3;3;
47079;PMS5003;33067;49.296;14.470;2023-05-17T05:21:56;4;2;
47079;PMS5003;33067;49.296;14.470;2023-05-17T05:24:22;2;1;
47079;PMS5003;33067;49.296;14.470;2023-05-17T05:26:47;3;3;
47079;PMS5003;33067;49.296;14.470;2023-05-17T05:29:12;3;3;
47079;PMS5003;33067;49.296;14.470;2023-05-17T05:31:37;4;3;
47079;PMS5003;33067;49.296;14.470;2023-05-17T05:34:03;4;3;
47079;PMS5003;33067;49.296;14.470;2023-05-17T05:36:28;3;3;
47079;PMS5003;33067;49.296;14.470;2023-05-17T05:38:53;3;3;
47079;PMS5003;33067;49.296;14.470;2023-05-17T05:41:19;2;2;
47079;PMS5003;33067;49.296;14.470;2023-05-17T05:43:44;3;3;
47079;PMS5003;33067;49.296;14.470;2023-05-17T05:46:09;3;3;
47079;PMS5003;33067;49.296;14.470;2023-05-17T05:48:35;2;2;
47079;PMS5003;33067;49.296;14.470;2023-05-17T05:51:00;2;2;
47079;PMS5003;33067;49.296;14.470;2023-05-17T05:53:25;2;2;
47079;PMS5003;33067;49.296;14.470;2023-05-17T05:55:50;3;3;
47079;PMS5003;33067;49.296;14.470;2023-05-17T05:58:16;5;3;
47079;PMS5003;33067;49.296;14.470;2023-05-17T06:00:41;3;2;
47079;PMS5003;33067;49.296;14.470;2023-05-17T06:03:06;4;4;
47079;PMS5003;33067;49.296;14.470;2023-05-17T06:05:32;4;2;
47079;PMS5003;33067;49.296;14.470;2023-05-17T06:07:57;5;4;
47079;PMS5003;33067;49.296;14.470;2023-05-17T06:10:22;3;3;
47079;PMS5003;33067;49.296;14.470;2023-05-17T06:12:47;3;3;
47079;PMS5003;33067;49.296;14.470;2023-05-17T06:15:13;3;3;
47079;PMS5003;33067;49.296;14.470;2023-05-17T06:17:38;3;3;
47079;PMS5003;33067;49.296;14.470;2023-05-17T06:20:04;3;3;
47079;PMS5003;33067;49.296;14.470;2023-05-17T06:22:29;2;2;
47079;PMS5003;33067;49.296;14.470;2023-05-17T06:24:54;3;3;
47079;PMS5003;33067;49.296;14.470;2023-05-17T06:27:20;6;4;
47079;PMS5003;33067;49.296;14.470;2023-05-17T06:29:45;5;2;
47079;PMS5003;33067;49.296;14.470;2023-05-17T06:32:12;5;2;
47079;PMS5003;33067;49.296;14.470;2023-05-17T06:34:37;4;4;
47079;PMS5003;33067;49.296;14.470;2023-05-17T06:37:01;4;4;
47079;PMS5003;33067;49.296;14.470;2023-05-17T06:39:28;4;4;
47079;PMS5003;33067;49.296;14.470;2023-05-17T06:41:52;4;4;
47079;PMS5003;33067;49.296;14.470;2023-05-17T06:44:17;2;2;
47079;PMS5003;33067;49.296;14.470;2023-05-17T06:46:42;5;3;
47079;PMS5003;33067;49.296;14.470;2023-05-17T06:49:08;4;4;
47079;PMS5003;33067;49.296;14.470;2023-05-17T06:51:33;6;5;
47079;PMS5003;33067;49.296;14.470;2023-05-17T06:53:59;4;4;
47079;PMS5003;33067;49.296;14.470;2023-05-17T06:56:24;4;4;
47079;PMS5003;33067;49.296;14.470;2023-05-17T06:58:49;2;2;
47079;PMS5003;33067;49.296;14.470;2023-05-17T07:01:16;3;3;
47079;PMS5003;33067;49.296;14.470;2023-05-17T07:03:40;2;2;
47079;PMS5003;33067;49.296;14.470;2023-05-17T07:06:05;3;3;
47079;PMS5003;33067;49.296;14.470;2023-05-17T07:08:31;4;4;
47079;PMS5003;33067;49.296;14.470;2023-05-17T07:10:56;3;3;
47079;PMS5003;33067;49.296;14.470;2023-05-17T07:13:21;3;3;
47079;PMS5003;33067;49.296;14.470;2023-05-17T07:15:47;8;6;
47079;PMS5003;33067;49.296;14.470;2023-05-17T07:18:12;6;5;
47079;PMS5003;33067;49.296;14.470;2023-05-17T07:20:37;3;3;
47079;PMS5003;33067;49.296;14.470;2023-05-17T07:23:03;4;4;
47079;PMS5003;33067;49.296;14.470;2023-05-17T07:25:28;5;5;
47079;PMS5003;33067;49.296;14.470;2023-05-17T07:27:53;6;6;
47079;PMS5003;33067;49.296;14.470;2023-05-17T07:30:19;5;4;
47079;PMS5003;33067;49.296;14.470;2023-05-17T07:32:44;5;3;
47079;PMS5003;33067;49.296;14.470;2023-05-17T07:35:10;34;34;
47079;PMS5003;33067;49.296;14.470;2023-05-17T07:37:35;35;35;
47079;PMS5003;33067;49.296;14.470;2023-05-17T07:40:00;63;63;
47079;PMS5003;33067;49.296;14.470;2023-05-17T07:42:25;53;52;
47079;PMS5003;33067;49.296;14.470;2023-05-17T07:44:50;16;15;
47079;PMS5003;33067;49.296;14.470;2023-05-17T07:47:16;13;13;
47079;PMS5003;33067;49.296;14.470;2023-05-17T07:49:41;11;11;
47079;PMS5003;33067;49.296;14.470;2023-05-17T07:52:06;8;8;
47079;PMS5003;33067;49.296;14.470;2023-05-17T07:54:32;6;4;
47079;PMS5003;33067;49.296;14.470;2023-05-17T07:56:57;6;6;
47079;PMS5003;33067;49.296;14.470;2023-05-17T07:59:22;6;6;
47079;PMS5003;33067;49.296;14.470;2023-05-17T08:01:48;5;5;
47079;PMS5003;33067;49.296;14.470;2023-05-17T08:04:13;6;5;
47079;PMS5003;33067;49.296;14.470;2023-05-17T08:06:38;4;4;
47079;PMS5003;33067;49.296;14.470;2023-05-17T08:09:03;8;6;
47079;PMS5003;33067;49.296;14.470;2023-05-17T08:11:28;7;7;
47079;PMS5003;33067;49.296;14.470;2023-05-17T08:13:54;7;7;
47079;PMS5003;33067;49.296;14.470;2023-05-17T08:16:21;5;5;
47079;PMS5003;33067;49.296;14.470;2023-05-17T08:18:44;9;7;
47079;PMS5003;33067;49.296;14.470;2023-05-17T08:21:10;11;10;
47079;PMS5003;33067;49.296;14.470;2023-05-17T08:23:36;13;12;
47079;PMS5003;33067;49.296;14.470;2023-05-17T08:26:01;20;20;
47079;PMS5003;33067;49.296;14.470;2023-05-17T08:28:26;17;16;
47079;PMS5003;33067;49.296;14.470;2023-05-17T08:30:52;30;27;
47079;PMS5003;33067;49.296;14.470;2023-05-17T08:33:17;30;29;
47079;PMS5003;33067;49.296;14.470;2023-05-17T08:35:42;38;38;
47079;PMS5003;33067;49.296;14.470;2023-05-17T08:38:08;24;23;
47079;PMS5003;33067;49.296;14.470;2023-05-17T08:40:33;12;12;
47079;PMS5003;33067;49.296;14.470;2023-05-17T08:42:58;10;8;
47079;PMS5003;33067;49.296;14.470;2023-05-17T08:45:24;10;8;
47079;PMS5003;33067;49.296;14.470;2023-05-17T08:47:49;9;9;
47079;PMS5003;33067;49.296;14.470;2023-05-17T08:50:14;7;7;
47079;PMS5003;33067;49.296;14.470;2023-05-17T08:52:40;12;12;
47079;PMS5003;33067;49.296;14.470;2023-05-17T08:55:05;12;12;
47079;PMS5003;33067;49.296;14.470;2023-05-17T08:57:32;11;7;
47079;PMS5003;33067;49.296;14.470;2023-05-17T08:59:57;12;9;
47079;PMS5003;33067;49.296;14.470;2023-05-17T09:02:22;12;12;
47079;PMS5003;33067;49.296;14.470;2023-05-17T09:04:46;12;12;
47079;PMS5003;33067;49.296;14.470;2023-05-17T09:07:11;11;9;
47079;PMS5003;33067;49.296;14.470;2023-05-17T09:09:36;14;10;
47079;PMS5003;33067;49.296;14.470;2023-05-17T09:12:01;7;7;
47079;PMS5003;33067;49.296;14.470;2023-05-17T09:14:32;9;9;
47079;PMS5003;33067;49.296;14.470;2023-05-17T09:16:55;10;9;
47079;PMS5003;33067;49.296;14.470;2023-05-17T09:19:17;12;10;
47079;PMS5003;33067;49.296;14.470;2023-05-17T09:21:44;12;10;
47079;PMS5003;33067;49.296;14.470;2023-05-17T09:24:08;10;10;
47079;PMS5003;33067;49.296;14.470;2023-05-17T09:26:36;12;9;
47079;PMS5003;33067;49.296;14.470;2023-05-17T09:29:00;9;8;
47079;PMS5003;33067;49.296;14.470;2023-05-17T09:31:23;14;14;
47079;PMS5003;33067;49.296;14.470;2023-05-17T09:33:51;18;17;
47079;PMS5003;33067;49.296;14.470;2023-05-17T09:36:17;13;11;
47079;PMS5003;33067;49.296;14.470;2023-05-17T09:38:40;10;10;
47079;PMS5003;33067;49.296;14.470;2023-05-17T09:41:06;15;13;
47079;PMS5003;33067;49.296;14.470;2023-05-17T09:43:31;11;11;
47079;PMS5003;33067;49.296;14.470;2023-05-17T09:45:57;14;12;
47079;PMS5003;33067;49.296;14.470;2023-05-17T09:48:21;9;9;
47079;PMS5003;33067;49.296;14.470;2023-05-17T09:50:47;11;10;
47079;PMS5003;33067;49.296;14.470;2023-05-17T09:55:37;9;9;
47079;PMS5003;33067;49.296;14.470;2023-05-17T09:58:04;12;11;
47079;PMS5003;33067;49.296;14.470;2023-05-17T10:00:28;12;11;
47079;PMS5003;33067;49.296;14.470;2023-05-17T10:02:54;10;10;
47079;PMS5003;33067;49.296;14.470;2023-05-17T10:05:18;11;11;
47079;PMS5003;33067;49.296;14.470;2023-05-17T10:07:44;12;11;
47079;PMS5003;33067;49.296;14.470;2023-05-17T10:10:09;11;10;
47079;PMS5003;33067;49.296;14.470;2023-05-17T10:12:34;9;9;
47079;PMS5003;33067;49.296;14.470;2023-05-17T10:15:00;15;11;
47079;PMS5003;33067;49.296;14.470;2023-05-17T10:17:25;9;9;
47079;PMS5003;33067;49.296;14.470;2023-05-17T10:19:50;11;11;
47079;PMS5003;33067;49.296;14.470;2023-05-17T10:22:16;12;11;
47079;PMS5003;33067;49.296;14.470;2023-05-17T10:24:42;10;10;
47079;PMS5003;33067;49.296;14.470;2023-05-17T10:27:07;11;10;
47079;PMS5003;33067;49.296;14.470;2023-05-17T10:29:33;10;8;
47079;PMS5003;33067;49.296;14.470;2023-05-17T10:31:58;8;8;
47079;PMS5003;33067;49.296;14.470;2023-05-17T10:34:25;9;9;
47079;PMS5003;33067;49.296;14.470;2023-05-17T10:36:51;10;10;
47079;PMS5003;33067;49.296;14.470;2023-05-17T10:39:14;13;8;
47079;PMS5003;33067;49.296;14.470;2023-05-17T10:41:41;10;8;
47079;PMS5003;33067;49.296;14.470;2023-05-17T10:44:05;10;10;
47079;PMS5003;33067;49.296;14.470;2023-05-17T10:46:30;10;8;
47079;PMS5003;33067;49.296;14.470;2023-05-17T10:48:56;12;10;
47079;PMS5003;33067;49.296;14.470;2023-05-17T10:51:21;11;10;
47079;PMS5003;33067;49.296;14.470;2023-05-17T10:56:12;16;10;
47079;PMS5003;33067;49.296;14.470;2023-05-17T10:58:37;10;10;
47079;PMS5003;33067;49.296;14.470;2023-05-17T11:01:02;10;10;
47079;PMS5003;33067;49.296;14.470;2023-05-17T11:03:28;12;12;
47079;PMS5003;33067;49.296;14.470;2023-05-17T11:08:20;11;11;
47079;PMS5003;33067;49.296;14.470;2023-05-17T11:15:36;16;16;
47079;PMS5003;33067;49.296;14.470;2023-05-17T11:18:02;13;12;
47079;PMS5003;33067;49.296;14.470;2023-05-17T11:20:29;11;10;
47079;PMS5003;33067;49.296;14.470;2023-05-17T11:22:54;18;14;
47079;PMS5003;33067;49.296;14.470;2023-05-17T11:25:17;14;13;
47079;PMS5003;33067;49.296;14.470;2023-05-17T11:27:44;13;13;
47079;PMS5003;33067;49.296;14.470;2023-05-17T11:30:14;14;13;
47079;PMS5003;33067;49.296;14.470;2023-05-17T11:32:34;12;11;
47079;PMS5003;33067;49.296;14.470;2023-05-17T11:34:59;16;16;
47079;PMS5003;33067;49.296;14.470;2023-05-17T11:37:25;15;15;
47079;PMS5003;33067;49.296;14.470;2023-05-17T11:44:40;15;11;
47079;PMS5003;33067;49.296;14.470;2023-05-17T11:47:06;12;12;
47079;PMS5003;33067;49.296;14.470;2023-05-17T11:49:31;15;11;
47079;PMS5003;33067;49.296;14.470;2023-05-17T11:51:56;14;13;
47079;PMS5003;33067;49.296;14.470;2023-05-17T11:54:21;15;12;
47079;PMS5003;33067;49.296;14.470;2023-05-17T11:56:46;13;13;
47079;PMS5003;33067;49.296;14.470;2023-05-17T12:01:42;11;11;
47079;PMS5003;33067;49.296;14.470;2023-05-17T12:04:03;15;15;
47079;PMS5003;33067;49.296;14.470;2023-05-17T12:06:28;14;12;
47079;PMS5003;33067;49.296;14.470;2023-05-17T12:08:54;13;13;
47079;PMS5003;33067;49.296;14.470;2023-05-17T12:11:20;17;16;
47079;PMS5003;33067;49.296;14.470;2023-05-17T12:13:45;11;10;
47079;PMS5003;33067;49.296;14.470;2023-05-17T12:16:11;9;9;
47079;PMS5003;33067;49.296;14.470;2023-05-17T12:18:36;10;10;
47079;PMS5003;33067;49.296;14.470;2023-05-17T12:21:01;11;11;
47079;PMS5003;33067;49.296;14.470;2023-05-17T12:23:28;14;13;
47079;PMS5003;33067;49.296;14.470;2023-05-17T12:28:19;17;14;
47079;PMS5003;33067;49.296;14.470;2023-05-17T12:30:44;21;20;
47079;PMS5003;33067;49.296;14.470;2023-05-17T12:33:11;11;11;
47079;PMS5003;33067;49.296;14.470;2023-05-17T12:35:35;18;16;
47079;PMS5003;33067;49.296;14.470;2023-05-17T12:38:00;10;9;
47079;PMS5003;33067;49.296;14.470;2023-05-17T12:40:26;10;10;
47079;PMS5003;33067;49.296;14.470;2023-05-17T12:45:16;12;10;
47079;PMS5003;33067;49.296;14.470;2023-05-17T12:47:41;13;11;
47079;PMS5003;33067;49.296;14.470;2023-05-17T12:50:08;13;13;
47079;PMS5003;33067;49.296;14.470;2023-05-17T12:52:32;10;10;
47079;PMS5003;33067;49.296;14.470;2023-05-17T12:54:57;11;11;
47079;PMS5003;33067;49.296;14.470;2023-05-17T12:57:22;13;11;
47079;PMS5003;33067;49.296;14.470;2023-05-17T12:59:50;11;11;
47079;PMS5003;33067;49.296;14.470;2023-05-17T13:02:13;14;13;
47079;PMS5003;33067;49.296;14.470;2023-05-17T13:04:38;18;16;
47079;PMS5003;33067;49.296;14.470;2023-05-17T13:07:03;15;12;
47079;PMS5003;33067;49.296;14.470;2023-05-17T13:09:29;15;14;
47079;PMS5003;33067;49.296;14.470;2023-05-17T13:11:55;11;9;
47079;PMS5003;33067;49.296;14.470;2023-05-17T13:16:45;13;12;
47079;PMS5003;33067;49.296;14.470;2023-05-17T13:19:11;14;14;
47079;PMS5003;33067;49.296;14.470;2023-05-17T13:21:36;17;16;
47079;PMS5003;33067;49.296;14.470;2023-05-17T13:24:03;14;14;
47079;PMS5003;33067;49.296;14.470;2023-05-17T13:26:27;11;11;
47079;PMS5003;33067;49.296;14.470;2023-05-17T13:28:52;13;13;
47079;PMS5003;33067;49.296;14.470;2023-05-17T13:31:19;9;9;
47079;PMS5003;33067;49.296;14.470;2023-05-17T13:33:42;10;10;
47079;PMS5003;33067;49.296;14.470;2023-05-17T13:36:09;16;12;
47079;PMS5003;33067;49.296;14.470;2023-05-17T13:38:34;12;12;
47079;PMS5003;33067;49.296;14.470;2023-05-17T13:40:59;12;10;
47079;PMS5003;33067;49.296;14.470;2023-05-17T13:43:26;10;10;
47079;PMS5003;33067;49.296;14.470;2023-05-17T13:45:50;14;14;
47079;PMS5003;33067;49.296;14.470;2023-05-17T13:48:15;13;12;
47079;PMS5003;33067;49.296;14.470;2023-05-17T13:50:40;18;17;
47079;PMS5003;33067;49.296;14.470;2023-05-17T13:53:07;16;14;
47079;PMS5003;33067;49.296;14.470;2023-05-17T13:55:31;14;14;
47079;PMS5003;33067;49.296;14.470;2023-05-17T13:57:56;20;19;
47079;PMS5003;33067;49.296;14.470;2023-05-17T14:00:22;19;19;
47079;PMS5003;33067;49.296;14.470;2023-05-17T14:02:47;12;12;
47079;PMS5003;33067;49.296;14.470;2023-05-17T14:05:13;12;12;
47079;PMS5003;33067;49.296;14.470;2023-05-17T14:07:38;12;12;
47079;PMS5003;33067;49.296;14.470;2023-05-17T14:10:03;15;14;
47079;PMS5003;33067;49.296;14.470;2023-05-17T14:12:28;17;14;
47079;PMS5003;33067;49.296;14.470;2023-05-17T14:14:54;13;13;
47079;PMS5003;33067;49.296;14.470;2023-05-17T14:17:19;25;21;
47079;PMS5003;33067;49.296;14.470;2023-05-17T14:19:45;19;17;
47079;PMS5003;33067;49.296;14.470;2023-05-17T14:22:10;17;17;
47079;PMS5003;33067;49.296;14.470;2023-05-17T14:24:35;25;20;
47079;PMS5003;33067;49.296;14.470;2023-05-17T14:27:01;19;18;
47079;PMS5003;33067;49.296;14.470;2023-05-17T14:29:26;20;18;
47079;PMS5003;33067;49.296;14.470;2023-05-17T14:31:52;20;20;
47079;PMS5003;33067;49.296;14.470;2023-05-17T14:34:18;14;14;
47079;PMS5003;33067;49.296;14.470;2023-05-17T14:36:43;18;18;
47079;PMS5003;33067;49.296;14.470;2023-05-17T14:39:09;15;13;
47079;PMS5003;33067;49.296;14.470;2023-05-17T14:41:34;14;14;
47079;PMS5003;33067;49.296;14.470;2023-05-17T14:44:00;17;17;
47079;PMS5003;33067;49.296;14.470;2023-05-17T14:46:25;18;18;
47079;PMS5003;33067;49.296;14.470;2023-05-17T14:48:50;14;14;
47079;PMS5003;33067;49.296;14.470;2023-05-17T14:51:16;22;21;
47079;PMS5003;33067;49.296;14.470;2023-05-17T14:53:41;17;16;
47079;PMS5003;33067;49.296;14.470;2023-05-17T14:56:07;18;18;
47079;PMS5003;33067;49.296;14.470;2023-05-17T14:58:32;22;20;
47079;PMS5003;33067;49.296;14.470;2023-05-17T15:00:58;22;20;
47079;PMS5003;33067;49.296;14.470;2023-05-17T15:03:23;23;19;
47079;PMS5003;33067;49.296;14.470;2023-05-17T15:05:52;17;16;
47079;PMS5003;33067;49.296;14.470;2023-05-17T15:08:15;24;21;
47079;PMS5003;33067;49.296;14.470;2023-05-17T15:10:40;18;15;
47079;PMS5003;33067;49.296;14.470;2023-05-17T15:13:05;19;17;
47079;PMS5003;33067;49.296;14.470;2023-05-17T15:15:31;14;14;
47079;PMS5003;33067;49.296;14.470;2023-05-17T15:17:56;15;14;
47079;PMS5003;33067;49.296;14.470;2023-05-17T15:20:21;20;19;
47079;PMS5003;33067;49.296;14.470;2023-05-17T15:22:47;17;17;
47079;PMS5003;33067;49.296;14.470;2023-05-17T15:25:12;17;17;
47079;PMS5003;33067;49.296;14.470;2023-05-17T15:27:38;17;17;
47079;PMS5003;33067;49.296;14.470;2023-05-17T15:30:04;18;16;
47079;PMS5003;33067;49.296;14.470;2023-05-17T15:32:29;21;20;
47079;PMS5003;33067;49.296;14.470;2023-05-17T15:34:55;20;20;
47079;PMS5003;33067;49.296;14.470;2023-05-17T15:37:20;20;19;
47079;PMS5003;33067;49.296;14.470;2023-05-17T15:39:45;19;16;
47079;PMS5003;33067;49.296;14.470;2023-05-17T15:42:11;22;22;
47079;PMS5003;33067;49.296;14.470;2023-05-17T15:44:37;18;17;
47079;PMS5003;33067;49.296;14.470;2023-05-17T15:47:02;21;19;
47079;PMS5003;33067;49.296;14.470;2023-05-17T15:49:28;25;25;
47079;PMS5003;33067;49.296;14.470;2023-05-17T15:51:53;24;24;
47079;PMS5003;33067;49.296;14.470;2023-05-17T15:54:19;19;18;
47079;PMS5003;33067;49.296;14.470;2023-05-17T15:56:45;26;24;
47079;PMS5003;33067;49.296;14.470;2023-05-17T15:59:10;20;19;
47079;PMS5003;33067;49.296;14.470;2023-05-17T16:01:36;23;22;
47079;PMS5003;33067;49.296;14.470;2023-05-17T16:04:01;19;19;
47079;PMS5003;33067;49.296;14.470;2023-05-17T16:06:26;20;20;
47079;PMS5003;33067;49.296;14.470;2023-05-17T16:08:52;20;19;
47079;PMS5003;33067;49.296;14.470;2023-05-17T16:11:17;31;30;
47079;PMS5003;33067;49.296;14.470;2023-05-17T16:13:43;29;29;
47079;PMS5003;33067;49.296;14.470;2023-05-17T16:16:08;27;24;
47079;PMS5003;33067;49.296;14.470;2023-05-17T16:18:34;24;24;
47079;PMS5003;33067;49.296;14.470;2023-05-17T16:21:00;24;24;
47079;PMS5003;33067;49.296;14.470;2023-05-17T16:23:24;23;20;
47079;PMS5003;33067;49.296;14.470;2023-05-17T16:25:49;20;19;
47079;PMS5003;33067;49.296;14.470;2023-05-17T16:28:15;19;19;
47079;PMS5003;33067;49.296;14.470;2023-05-17T16:30:40;21;21;